Time;durP1;ratioP1;P1;durP2;ratioP2;P2;SDS_P1;SDS_P2;PMS_P1;PMS_P2;Temp;Humidity;BMP_temperature;BMP_pressure;BME280_temperature;BME280_humidity;BME280_pressure;Samples;Min_cycle;Max_cycle;Signal;HPM_P1;HPM_P2
2022/10/25 00:01:23;;;;;;;0.10;0.10;;;;;;;;;;5064445;28;20029;-75
2022/10/25 00:03:49;;;;;;;4.70;4.47;;;;;;;;;;5072907;28;20047;-76
2022/10/25 00:06:16;;;;;;;11.50;6.82;;;;;;;;;;5079384;28;20024;-76
2022/10/25 00:08:42;;;;;;;0.00;0.00;;;;;;;;;;5076229;28;20496;-76
2022/10/25 00:11:11;;;;;;;0.63;0.63;;;;;;;;;;5067438;28;20040;-77
2022/10/25 00:13:37;;;;;;;0.13;0.13;;;;;;;;;;5062500;28;20033;-75
2022/10/25 00:16:04;;;;;;;0.50;0.50;;;;;;;;;;5081960;28;20134;-77
2022/10/25 00:18:30;;;;;;;3.15;2.95;;;;;;;;;;5080905;28;20032;-76
2022/10/25 00:20:56;;;;;;;1.10;1.05;;;;;;;;;;5069608;28;20029;-77
2022/10/25 00:23:23;;;;;;;9.75;5.18;;;;;;;;;;5073699;28;20385;-76
2022/10/25 00:25:49;;;;;;;0.73;0.68;;;;;;;;;;5074992;28;20066;-76
2022/10/25 00:28:15;;;;;;;1.00;1.00;;;;;;;;;;5068533;28;20028;-76
2022/10/25 00:30:41;;;;;;;2.75;2.50;;;;;;;;;;5095783;28;20476;-75
2022/10/25 00:33:08;;;;;;;1.90;1.77;;;;;;;;;;5072628;28;20028;-78
2022/10/25 00:35:35;;;;;;;8.90;7.97;;;;;;;;;;5066276;28;20063;-75
2022/10/25 00:38:02;;;;;;;0.75;0.45;;;;;;;;;;5075750;28;20424;-77
2022/10/25 00:40:28;;;;;;;4.45;4.13;;;;;;;;;;5092961;28;20046;-75
2022/10/25 00:42:54;;;;;;;3.38;3.17;;;;;;;;;;5082811;28;20086;-77
2022/10/25 00:45:22;;;;;;;0.00;0.00;;;;;;;;;;5060710;28;20064;-76
2022/10/25 00:47:54;;;;;;;0.00;0.00;;;;;;;;;;5080546;28;20052;-76
2022/10/25 00:50:32;;;;;;;0.05;0.05;;;;;;;;;;5067457;28;20064;-77
2022/10/25 00:53:04;;;;;;;0.00;0.00;;;;;;;;;;5073322;28;20436;-76
2022/10/25 00:55:30;;;;;;;2.13;2.05;;;;;;;;;;5065069;28;20029;-77
2022/10/25 00:57:59;;;;;;;0.00;0.00;;;;;;;;;;5060602;28;20459;-76
2022/10/25 01:00:25;;;;;;;2.17;1.88;;;;;;;;;;5066357;28;20481;-76
2022/10/25 01:02:52;;;;;;;0.00;0.00;;;;;;;;;;5054131;28;20119;-76
2022/10/25 01:05:19;;;;;;;0.00;0.00;;;;;;;;;;5074090;28;20023;-76
2022/10/25 01:07:46;;;;;;;4.82;4.35;;;;;;;;;;5077715;28;20212;-76
2022/10/25 01:10:13;;;;;;;2.55;1.27;;;;;;;;;;5073340;28;20032;-75
2022/10/25 01:12:39;;;;;;;3.58;3.30;;;;;;;;;;5074422;28;20397;-75
2022/10/25 01:15:06;;;;;;;4.40;4.20;;;;;;;;;;5081814;28;20376;-77
2022/10/25 01:17:45;;;;;;;4.75;1.08;;;;;;;;;;5067782;28;20025;-76
2022/10/25 01:20:11;;;;;;;1.38;1.30;;;;;;;;;;5059026;28;20025;-76
2022/10/25 01:22:56;;;;;;;8.98;5.40;;;;;;;;;;5054609;28;20097;-76
2022/10/25 01:25:33;;;;;;;13.15;9.50;;;;;;;;;;5073434;28;20031;-78
2022/10/25 01:28:02;;;;;;;15.27;7.88;;;;;;;;;;5073243;28;20362;-77
2022/10/25 01:30:31;;;;;;;10.10;9.15;;;;;;;;;;5065826;28;20025;-78
2022/10/25 01:32:57;;;;;;;23.95;13.85;;;;;;;;;;5068807;28;20368;-77
2022/10/25 01:35:39;;;;;;;7.75;7.05;;;;;;;;;;5083647;28;20031;-77
2022/10/25 01:38:24;;;;;;;7.57;6.38;;;;;;;;;;5093343;28;20400;-76
2022/10/25 01:41:00;;;;;;;14.70;8.73;;;;;;;;;;5094381;28;20114;-76
2022/10/25 01:43:49;;;;;;;19.38;13.80;;;;;;;;;;5066416;28;20024;-76
2022/10/25 01:46:36;;;;;;;22.05;13.95;;;;;;;;;;5072006;28;20032;-76
2022/10/25 01:49:08;;;;;;;11.40;7.45;;;;;;;;;;5074088;28;20032;-76
2022/10/25 01:51:38;;;;;;;0.57;0.57;;;;;;;;;;5069031;28;20063;-74
2022/10/25 01:54:17;;;;;;;13.48;9.88;;;;;;;;;;5072057;28;20040;-77
2022/10/25 01:56:52;;;;;;;6.78;5.70;;;;;;;;;;5068686;28;20400;-75
2022/10/25 01:59:18;;;;;;;35.28;18.30;;;;;;;;;;5069002;28;20024;-77
2022/10/25 02:01:53;;;;;;;34.00;14.88;;;;;;;;;;5073901;28;20025;-76
2022/10/25 02:04:19;;;;;;;19.90;18.00;;;;;;;;;;5072213;28;20052;-76
2022/10/25 02:07:07;;;;;;;33.03;17.65;;;;;;;;;;5072988;28;20024;-77
2022/10/25 02:09:38;;;;;;;26.80;18.52;;;;;;;;;;5070715;28;20032;-76
2022/10/25 02:12:07;;;;;;;45.95;22.98;;;;;;;;;;5065389;28;20036;-74
2022/10/25 02:14:38;;;;;;;40.72;24.20;;;;;;;;;;5059297;28;20021;-75
2022/10/25 02:17:11;;;;;;;33.90;22.63;;;;;;;;;;5071622;28;20032;-76
2022/10/25 02:19:42;;;;;;;27.95;16.95;;;;;;;;;;5071969;28;20028;-75
2022/10/25 02:22:10;;;;;;;60.80;30.92;;;;;;;;;;5076119;28;20032;-77
2022/10/25 02:24:37;;;;;;;32.53;20.85;;;;;;;;;;5070335;28;20032;-77
2022/10/25 02:27:05;;;;;;;29.80;17.15;;;;;;;;;;5071049;28;20036;-76
2022/10/25 02:29:32;;;;;;;50.22;21.35;;;;;;;;;;5061308;28;20024;-75
2022/10/25 02:31:59;;;;;;;23.00;13.48;;;;;;;;;;5064219;28;20177;-75
2022/10/25 02:34:25;;;;;;;37.28;23.08;;;;;;;;;;5062831;28;20032;-76
2022/10/25 02:36:57;;;;;;;36.05;18.73;;;;;;;;;;5066625;28;20032;-78
2022/10/25 02:39:24;;;;;;;61.28;31.38;;;;;;;;;;5066445;28;20039;-76
2022/10/25 02:41:51;;;;;;;52.15;28.75;;;;;;;;;;5066378;28;20489;-75
2022/10/25 02:44:17;;;;;;;28.30;20.48;;;;;;;;;;5062320;28;20036;-77
2022/10/25 02:46:49;;;;;;;27.50;15.10;;;;;;;;;;5059981;28;20487;-78
2022/10/25 02:49:16;;;;;;;11.50;10.27;;;;;;;;;;5065894;28;20029;-76
2022/10/25 02:51:42;;;;;;;44.33;19.25;;;;;;;;;;5062158;28;20058;-79
2022/10/25 02:54:08;;;;;;;19.67;10.45;;;;;;;;;;5061218;28;20024;-76
2022/10/25 02:56:35;;;;;;;29.17;17.50;;;;;;;;;;5066182;28;20096;-76
2022/10/25 02:59:01;;;;;;;13.60;11.48;;;;;;;;;;5062251;28;20028;-77
2022/10/25 03:01:27;;;;;;;32.50;20.27;;;;;;;;;;5067922;28;20102;-78
2022/10/25 03:03:54;;;;;;;32.33;12.85;;;;;;;;;;5064925;28;20020;-76
2022/10/25 03:06:20;;;;;;;29.67;15.35;;;;;;;;;;5060489;28;20858;-76
2022/10/25 03:08:46;;;;;;;15.15;11.02;;;;;;;;;;5062914;28;20025;-76
2022/10/25 03:11:13;;;;;;;24.77;13.25;;;;;;;;;;5060177;28;20039;-77
2022/10/25 03:13:40;;;;;;;4.70;3.47;;;;;;;;;;5064263;28;20084;-77
2022/10/25 03:16:06;;;;;;;13.82;12.32;;;;;;;;;;5063836;28;20071;-77
2022/10/25 03:18:32;;;;;;;48.47;22.88;;;;;;;;;;5063844;28;20067;-75
2022/10/25 03:21:00;;;;;;;60.00;32.58;;;;;;;;;;5068236;28;20035;-76
2022/10/25 03:23:27;;;;;;;68.40;32.65;;;;;;;;;;5067769;28;20024;-76
2022/10/25 03:25:54;;;;;;;51.95;28.52;;;;;;;;;;5060726;28;20017;-77
2022/10/25 03:28:20;;;;;;;69.57;37.00;;;;;;;;;;5058548;28;20039;-80
2022/10/25 03:30:46;;;;;;;21.70;15.27;;;;;;;;;;5072825;28;20055;-77
2022/10/25 03:33:13;;;;;;;60.45;26.80;;;;;;;;;;5082068;28;20032;-78
2022/10/25 03:35:39;;;;;;;38.75;16.38;;;;;;;;;;5088284;28;20027;-76
2022/10/25 03:38:05;;;;;;;52.85;27.35;;;;;;;;;;5083541;28;20392;-76
2022/10/25 03:40:32;;;;;;;101.60;51.92;;;;;;;;;;5089773;28;20051;-76
2022/10/25 03:42:58;;;;;;;69.80;27.02;;;;;;;;;;5081472;28;20074;-77
2022/10/25 03:45:25;;;;;;;29.13;19.27;;;;;;;;;;5081824;28;20099;-80
2022/10/25 03:47:51;;;;;;;43.47;26.77;;;;;;;;;;5082909;28;20099;-78
2022/10/25 03:50:18;;;;;;;60.17;33.65;;;;;;;;;;5083539;28;20020;-80
2022/10/25 03:52:44;;;;;;;50.35;26.65;;;;;;;;;;5081822;28;20016;-77
2022/10/25 03:55:14;;;;;;;56.83;30.95;;;;;;;;;;5080324;28;20027;-80
2022/10/25 03:57:40;;;;;;;52.72;23.08;;;;;;;;;;5079480;28;20028;-79
2022/10/25 04:00:07;;;;;;;46.08;27.20;;;;;;;;;;5078081;28;20048;-83
2022/10/25 04:02:36;;;;;;;21.92;10.63;;;;;;;;;;5081494;28;20031;-79
2022/10/25 04:05:02;;;;;;;65.80;34.67;;;;;;;;;;5081862;28;20069;-77
2022/10/25 04:07:29;;;;;;;48.97;25.42;;;;;;;;;;5077848;28;21560;-80
2022/10/25 04:09:55;;;;;;;26.77;17.33;;;;;;;;;;5078319;28;20339;-81
2022/10/25 04:12:21;;;;;;;42.47;15.25;;;;;;;;;;5081368;28;20365;-76
2022/10/25 04:14:48;;;;;;;4.20;3.95;;;;;;;;;;5081391;28;20027;-81
2022/10/25 04:17:14;;;;;;;28.75;15.15;;;;;;;;;;5078917;28;20031;-80
2022/10/25 04:19:40;;;;;;;16.48;13.57;;;;;;;;;;5074870;28;20135;-77
2022/10/25 04:22:07;;;;;;;1.42;1.35;;;;;;;;;;5075607;28;20473;-79
2022/10/25 04:24:35;;;;;;;33.03;17.50;;;;;;;;;;5076982;28;20361;-81
2022/10/25 04:27:02;;;;;;;50.03;23.65;;;;;;;;;;5081711;28;20052;-78
2022/10/25 04:29:28;;;;;;;15.77;12.13;;;;;;;;;;5089477;28;20024;-79
2022/10/25 04:31:54;;;;;;;43.10;21.00;;;;;;;;;;5080923;28;20071;-80
2022/10/25 04:34:21;;;;;;;45.33;23.60;;;;;;;;;;5080716;28;20028;-80
2022/10/25 04:36:47;;;;;;;49.78;23.15;;;;;;;;;;5083112;28;20449;-78
2022/10/25 04:39:13;;;;;;;41.08;17.48;;;;;;;;;;5090884;28;20040;-78
2022/10/25 04:41:40;;;;;;;36.50;14.98;;;;;;;;;;5062550;28;20045;-79
2022/10/25 04:44:06;;;;;;;29.05;13.18;;;;;;;;;;5062902;28;20033;-80
2022/10/25 04:46:32;;;;;;;8.80;7.25;;;;;;;;;;5067242;28;20273;-77
2022/10/25 04:48:59;;;;;;;46.45;24.33;;;;;;;;;;5065577;28;20108;-78
2022/10/25 04:51:25;;;;;;;35.50;12.20;;;;;;;;;;5058738;28;20071;-78
2022/10/25 04:53:55;;;;;;;16.48;10.30;;;;;;;;;;5057993;28;20139;-78
2022/10/25 04:56:22;;;;;;;49.40;23.48;;;;;;;;;;5061989;28;20027;-78
2022/10/25 04:58:48;;;;;;;41.25;21.90;;;;;;;;;;5065879;28;20650;-78
2022/10/25 05:01:16;;;;;;;27.33;14.82;;;;;;;;;;5061793;28;20370;-79
2022/10/25 05:03:42;;;;;;;32.35;17.38;;;;;;;;;;5066394;28;20028;-78
2022/10/25 05:06:10;;;;;;;43.78;18.67;;;;;;;;;;5065237;28;20370;-79
2022/10/25 05:08:38;;;;;;;34.22;18.38;;;;;;;;;;5064272;28;20037;-79
2022/10/25 05:11:05;;;;;;;32.33;16.83;;;;;;;;;;5061228;28;20628;-80
2022/10/25 05:13:32;;;;;;;39.47;19.55;;;;;;;;;;5065724;28;20032;-80
2022/10/25 05:16:00;;;;;;;28.90;14.52;;;;;;;;;;5072596;28;20108;-79
2022/10/25 05:18:26;;;;;;;59.80;25.02;;;;;;;;;;5055386;28;20500;-78
2022/10/25 05:20:56;;;;;;;15.02;7.97;;;;;;;;;;5063078;28;20056;-78
2022/10/25 05:23:24;;;;;;;38.38;12.40;;;;;;;;;;5062165;28;20024;-79
2022/10/25 05:26:23;;;;;;;17.55;9.15;;;;;;;;;;5058582;28;20468;-78
2022/10/25 05:28:51;;;;;;;36.10;15.98;;;;;;;;;;5017636;28;20064;-79
2022/10/25 05:31:19;;;;;;;41.60;18.75;;;;;;;;;;5056718;28;20024;-78
2022/10/25 05:33:46;;;;;;;27.05;13.73;;;;;;;;;;5056670;28;20032;-79
2022/10/25 05:36:13;;;;;;;30.25;14.25;;;;;;;;;;5067577;28;20442;-79
2022/10/25 05:38:39;;;;;;;28.15;13.27;;;;;;;;;;5063123;28;20457;-78
2022/10/25 05:41:06;;;;;;;17.83;9.88;;;;;;;;;;5062956;28;20177;-78
2022/10/25 05:43:33;;;;;;;28.42;13.43;;;;;;;;;;5080480;28;20169;-79
2022/10/25 05:46:06;;;;;;;34.03;17.60;;;;;;;;;;5081759;28;20051;-80
2022/10/25 05:48:33;;;;;;;21.08;10.88;;;;;;;;;;5079083;28;20028;-79
2022/10/25 05:51:19;;;;;;;30.25;13.00;;;;;;;;;;5080194;28;20027;-81
2022/10/25 05:53:46;;;;;;;34.25;14.57;;;;;;;;;;5077233;28;20298;-80
2022/10/25 05:56:13;;;;;;;24.70;13.23;;;;;;;;;;5088881;28;20024;-80
2022/10/25 05:58:40;;;;;;;20.88;10.23;;;;;;;;;;5078485;28;20368;-79
2022/10/25 06:01:06;;;;;;;10.95;6.88;;;;;;;;;;5081778;28;20039;-79
2022/10/25 06:10:22;;;;;;;9.95;7.25;;;;;;;;;;5072830;28;20039;-81
2022/10/25 06:12:48;;;;;;;21.45;11.15;;;;;;;;;;5078674;28;20114;-78
2022/10/25 06:15:19;;;;;;;21.25;9.88;;;;;;;;;;5079665;28;20273;-80
2022/10/25 06:18:09;;;;;;;6.60;4.97;;;;;;;;;;5072742;28;20029;-80
2022/10/25 06:20:51;;;;;;;5.03;3.17;;;;;;;;;;5059084;28;20087;-79
2022/10/25 06:23:26;;;;;;;7.97;4.15;;;;;;;;;;5075747;28;20055;-81
2022/10/25 06:26:21;;;;;;;13.15;7.38;;;;;;;;;;5074743;28;20424;-79
2022/10/25 06:32:16;;;;;;;10.68;6.55;;;;;;;;;;5082229;28;20143;-78
2022/10/25 06:34:46;;;;;;;13.63;6.43;;;;;;;;;;5058080;28;20075;-78
2022/10/25 06:37:18;;;;;;;8.77;3.75;;;;;;;;;;5073791;28;20035;-79
2022/10/25 06:39:56;;;;;;;6.70;3.53;;;;;;;;;;5056223;28;20039;-79
2022/10/25 06:42:55;;;;;;;5.75;2.08;;;;;;;;;;5085330;28;20391;-78
2022/10/25 06:45:21;;;;;;;8.80;5.25;;;;;;;;;;5079395;28;20055;-81
2022/10/25 06:47:48;;;;;;;4.57;3.20;;;;;;;;;;5078666;28;20020;-79
2022/10/25 06:50:14;;;;;;;10.95;5.30;;;;;;;;;;5080848;28;20016;-78
2022/10/25 06:53:04;;;;;;;3.40;1.88;;;;;;;;;;5075940;28;20028;-78
2022/10/25 06:55:30;;;;;;;4.22;2.70;;;;;;;;;;5064398;28;20036;-77
2022/10/25 06:57:59;;;;;;;5.10;2.42;;;;;;;;;;5070262;28;20360;-78
2022/10/25 07:00:25;;;;;;;5.05;2.58;;;;;;;;;;5079289;28;20091;-78
2022/10/25 07:03:08;;;;;;;6.13;3.17;;;;;;;;;;5070726;28;20148;-79
2022/10/25 07:06:00;;;;;;;3.45;1.02;;;;;;;;;;5065103;28;20123;-78
2022/10/25 07:08:36;;;;;;;3.33;1.65;;;;;;;;;;5068112;28;20052;-78
2022/10/25 07:11:07;;;;;;;1.40;1.02;;;;;;;;;;5074691;28;20527;-79
2022/10/25 07:14:14;;;;;;;5.35;3.28;;;;;;;;;;5075773;28;20036;-78
2022/10/25 07:16:46;;;;;;;4.30;2.33;;;;;;;;;;5076957;28;20484;-78
2022/10/25 07:19:15;;;;;;;5.20;1.67;;;;;;;;;;5057478;28;20134;-78
2022/10/25 07:45:28;;;;;;;3.70;1.00;;;;;;;;;;4927405;29;20042;-78
2022/10/25 07:51:34;;;;;;;7.18;4.47;;;;;;;;;;5095996;22;20550;-80
2022/10/25 08:03:37;;;;;;;5.82;1.65;;;;;;;;;;5018956;28;20072;-81
2022/10/25 08:06:15;;;;;;;0.22;0.22;;;;;;;;;;5072277;28;20617;-78
2022/10/25 08:08:56;;;;;;;1.23;0.70;;;;;;;;;;5088549;28;20025;-82
2022/10/25 08:49:39;;;;;;;0.90;0.75;;;;;;;;;;4877616;29;20135;-81
2022/10/25 08:52:07;;;;;;;2.63;1.23;;;;;;;;;;4863754;29;20069;-76
2022/10/25 08:54:35;;;;;;;0.55;0.30;;;;;;;;;;4923035;28;20412;-77
2022/10/25 08:57:17;;;;;;;0.38;0.30;;;;;;;;;;5075668;28;20078;-79
2022/10/25 08:59:47;;;;;;;0.00;0.00;;;;;;;;;;5092467;28;20036;-75
2022/10/25 09:02:25;;;;;;;0.63;0.32;;;;;;;;;;5092355;28;20060;-76
2022/10/25 09:04:53;;;;;;;0.00;0.00;;;;;;;;;;5085978;28;20030;-77
2022/10/25 09:07:19;;;;;;;0.00;0.00;;;;;;;;;;5089124;28;20016;-75
2022/10/25 09:10:00;;;;;;;0.55;0.55;;;;;;;;;;5079261;28;20095;-76
2022/10/25 09:12:29;;;;;;;0.82;0.57;;;;;;;;;;5085267;28;20036;-77
2022/10/25 09:15:07;;;;;;;0.90;0.57;;;;;;;;;;5087807;28;20032;-78
2022/10/25 09:17:50;;;;;;;5.00;2.50;;;;;;;;;;5086500;28;20032;-75
2022/10/25 09:20:26;;;;;;;0.60;0.60;;;;;;;;;;5089159;28;20028;-78
2022/10/25 09:23:00;;;;;;;23.92;22.73;;;;;;;;;;5087180;28;20123;-75
2022/10/25 09:25:34;;;;;;;2.80;1.60;;;;;;;;;;5092112;28;20045;-74
2022/10/25 09:28:05;;;;;;;16.08;2.38;;;;;;;;;;5096432;28;20028;-77
2022/10/25 09:30:36;;;;;;;4.18;0.43;;;;;;;;;;5095272;28;20409;-77
2022/10/25 09:33:04;;;;;;;0.47;0.43;;;;;;;;;;5086376;28;20478;-78
2022/10/25 09:35:52;;;;;;;1.25;0.70;;;;;;;;;;5088434;28;20044;-76
2022/10/25 09:38:30;;;;;;;1.75;1.60;;;;;;;;;;5087740;28;20021;-77
2022/10/25 09:41:02;;;;;;;1.42;0.50;;;;;;;;;;5065695;28;20070;-79
2022/10/25 09:43:37;;;;;;;1.52;0.55;;;;;;;;;;5088066;28;20024;-77
2022/10/25 09:46:32;;;;;;;0.17;0.17;;;;;;;;;;5088518;28;20034;-76
2022/10/25 09:49:17;;;;;;;1.30;0.90;;;;;;;;;;5035563;28;20425;-76
2022/10/25 09:51:59;;;;;;;6.25;3.33;;;;;;;;;;5088209;28;20379;-78
2022/10/25 09:54:32;;;;;;;5.00;2.65;;;;;;;;;;5088571;28;20031;-76
2022/10/25 09:56:58;;;;;;;3.90;1.35;;;;;;;;;;5084482;28;20051;-77
2022/10/25 09:59:26;;;;;;;2.40;1.40;;;;;;;;;;5084844;28;20062;-77
2022/10/25 10:01:53;;;;;;;1.80;0.98;;;;;;;;;;5086237;28;20067;-77
2022/10/25 10:04:25;;;;;;;1.10;0.43;;;;;;;;;;5089386;28;20024;-79
2022/10/25 10:06:53;;;;;;;0.90;0.88;;;;;;;;;;5085733;28;20043;-78
2022/10/25 10:09:20;;;;;;;1.20;0.73;;;;;;;;;;5082342;28;20032;-77
2022/10/25 10:11:47;;;;;;;4.75;1.90;;;;;;;;;;5087180;28;20043;-78
2022/10/25 10:14:22;;;;;;;3.25;2.35;;;;;;;;;;5085537;28;20081;-77
2022/10/25 10:16:50;;;;;;;3.38;1.38;;;;;;;;;;5087887;28;20043;-77
2022/10/25 10:19:21;;;;;;;0.40;0.40;;;;;;;;;;5087474;28;20032;-77
2022/10/25 10:21:49;;;;;;;3.55;1.52;;;;;;;;;;5087346;28;20131;-77
2022/10/25 10:24:18;;;;;;;1.05;0.45;;;;;;;;;;5086305;28;20021;-76
2022/10/25 10:26:53;;;;;;;0.08;0.08;;;;;;;;;;5090847;28;20016;-76
2022/10/25 10:29:23;;;;;;;1.30;1.05;;;;;;;;;;5085582;28;20016;-86
2022/10/25 10:31:50;;;;;;;3.63;1.20;;;;;;;;;;5082375;28;20024;-84
2022/10/25 10:34:35;;;;;;;2.20;1.52;;;;;;;;;;5084014;28;20033;-83
2022/10/25 10:37:02;;;;;;;0.73;0.73;;;;;;;;;;5084753;28;20028;-84
2022/10/25 10:39:28;;;;;;;2.30;0.95;;;;;;;;;;5084642;28;20425;-81
2022/10/25 10:42:24;;;;;;;0.22;0.22;;;;;;;;;;5081678;28;20024;-81
2022/10/25 10:45:12;;;;;;;2.53;2.20;;;;;;;;;;5069668;28;20060;-85
2022/10/25 10:47:50;;;;;;;0.22;0.10;;;;;;;;;;5090254;28;20476;-84
2022/10/25 10:50:23;;;;;;;0.00;0.00;;;;;;;;;;5091738;28;20043;-78
2022/10/25 10:52:57;;;;;;;0.15;0.00;;;;;;;;;;5093148;28;20477;-86
2022/10/25 10:55:29;;;;;;;0.10;0.10;;;;;;;;;;5082270;28;20074;-86
2022/10/25 10:58:00;;;;;;;0.60;0.60;;;;;;;;;;5089149;28;20321;-88
2022/10/25 11:00:28;;;;;;;0.00;0.00;;;;;;;;;;5087388;28;20020;-86
2022/10/25 11:02:55;;;;;;;0.00;0.00;;;;;;;;;;5083878;28;20140;-87
2022/10/25 11:05:26;;;;;;;0.00;0.00;;;;;;;;;;5083400;28;20029;-85
2022/10/25 11:07:53;;;;;;;1.20;0.38;;;;;;;;;;5081418;28;20107;-85
2022/10/25 11:10:21;;;;;;;3.42;3.17;;;;;;;;;;5083934;28;20027;-87
2022/10/25 11:13:04;;;;;;;0.90;0.90;;;;;;;;;;5082946;28;20396;-85
2022/10/25 11:15:33;;;;;;;0.00;0.00;;;;;;;;;;5084922;28;20020;-85
2022/10/25 11:18:02;;;;;;;0.63;0.63;;;;;;;;;;5081549;28;20098;-87
2022/10/25 11:20:55;;;;;;;4.63;1.70;;;;;;;;;;5082654;28;20119;-81
2022/10/25 11:23:27;;;;;;;1.00;0.93;;;;;;;;;;5078197;28;20399;-88
2022/10/25 11:26:08;;;;;;;0.35;0.35;;;;;;;;;;5085521;28;20013;-84
2022/10/25 11:28:45;;;;;;;0.77;0.47;;;;;;;;;;5091069;28;20024;-84
2022/10/25 11:31:11;;;;;;;0.20;0.20;;;;;;;;;;5089025;28;20032;-84
2022/10/25 11:33:56;;;;;;;0.15;0.15;;;;;;;;;;5089587;28;20035;-83
2022/10/25 11:36:27;;;;;;;0.00;0.00;;;;;;;;;;5091719;28;20028;-82
2022/10/25 11:39:12;;;;;;;1.95;1.80;;;;;;;;;;5067377;28;20062;-83
2022/10/25 11:42:08;;;;;;;0.00;0.00;;;;;;;;;;5094983;28;20028;-84
2022/10/25 11:44:49;;;;;;;5.10;0.82;;;;;;;;;;5021407;28;20085;-87
2022/10/25 11:47:26;;;;;;;0.43;0.43;;;;;;;;;;5088489;28;20109;-86
2022/10/25 11:49:58;;;;;;;0.45;0.30;;;;;;;;;;5088835;28;20027;-85
2022/10/25 11:52:27;;;;;;;0.82;0.82;;;;;;;;;;5085843;28;20044;-86
2022/10/25 11:55:03;;;;;;;0.00;0.00;;;;;;;;;;5083693;28;20540;-87
2022/10/25 11:57:41;;;;;;;0.00;0.00;;;;;;;;;;5088327;28;20480;-87
2022/10/25 12:00:11;;;;;;;0.00;0.00;;;;;;;;;;5094081;28;20043;-83
2022/10/25 12:03:00;;;;;;;0.00;0.00;;;;;;;;;;5088550;28;20032;-87
2022/10/25 12:05:44;;;;;;;0.00;0.00;;;;;;;;;;5087883;28;20028;-87
2022/10/25 12:08:29;;;;;;;1.35;1.35;;;;;;;;;;5084508;28;20048;-84
2022/10/25 12:11:02;;;;;;;0.00;0.00;;;;;;;;;;5085438;28;20024;-86
2022/10/25 12:13:33;;;;;;;0.93;0.93;;;;;;;;;;5086585;28;20028;-87
2022/10/25 12:16:01;;;;;;;0.38;0.38;;;;;;;;;;5088439;28;20020;-86
2022/10/25 12:18:36;;;;;;;1.10;1.08;;;;;;;;;;5098970;28;20032;-80
2022/10/25 12:21:04;;;;;;;0.15;0.15;;;;;;;;;;5097012;28;20138;-86
2022/10/25 12:23:31;;;;;;;0.00;0.00;;;;;;;;;;5092507;28;20468;-85
2022/10/25 12:26:11;;;;;;;0.60;0.60;;;;;;;;;;5095845;28;20024;-87
2022/10/25 12:28:48;;;;;;;0.00;0.00;;;;;;;;;;5090413;28;20020;-87
2022/10/25 12:31:14;;;;;;;0.35;0.35;;;;;;;;;;5090308;28;20016;-88
2022/10/25 12:33:42;;;;;;;0.80;0.80;;;;;;;;;;5091191;28;20020;-89
2022/10/25 12:36:17;;;;;;;0.00;0.00;;;;;;;;;;5090093;28;20110;-85
2022/10/25 12:38:43;;;;;;;1.00;1.00;;;;;;;;;;5088659;28;20020;-89
2022/10/25 12:41:23;;;;;;;0.00;0.00;;;;;;;;;;5090532;28;20119;-88
2022/10/25 12:43:49;;;;;;;0.00;0.00;;;;;;;;;;5090717;28;20415;-88
2022/10/25 12:46:27;;;;;;;0.00;0.00;;;;;;;;;;5091412;28;20070;-89
2022/10/25 12:49:04;;;;;;;0.00;0.00;;;;;;;;;;5092869;28;20012;-89
2022/10/25 12:51:40;;;;;;;0.00;0.00;;;;;;;;;;5089967;28;20091;-90
2022/10/25 12:54:25;;;;;;;0.10;0.10;;;;;;;;;;5095121;28;20055;-89
2022/10/25 12:56:59;;;;;;;0.00;0.00;;;;;;;;;;5090135;28;20032;-85
2022/10/25 12:59:41;;;;;;;0.00;0.00;;;;;;;;;;5088634;28;20032;-83
2022/10/25 13:02:11;;;;;;;2.28;2.25;;;;;;;;;;5090060;28;20059;-88
2022/10/25 13:04:40;;;;;;;0.43;0.43;;;;;;;;;;5092502;28;20521;-88
2022/10/25 13:07:07;;;;;;;28.65;26.45;;;;;;;;;;5088784;28;20024;-87
2022/10/25 13:09:34;;;;;;;0.00;0.00;;;;;;;;;;5093439;28;20035;-86
2022/10/25 13:12:05;;;;;;;0.00;0.00;;;;;;;;;;5101791;28;20020;-87
2022/10/25 13:14:38;;;;;;;0.00;0.00;;;;;;;;;;5095436;28;20047;-87
2022/10/25 13:17:13;;;;;;;14.98;14.02;;;;;;;;;;5088686;28;20054;-90
2022/10/25 13:19:40;;;;;;;0.00;0.00;;;;;;;;;;5095282;28;20379;-82
2022/10/25 13:22:10;;;;;;;0.00;0.00;;;;;;;;;;5092688;28;20046;-89
2022/10/25 13:24:38;;;;;;;5.90;5.35;;;;;;;;;;5090134;28;20016;-86
2022/10/25 13:27:19;;;;;;;0.30;0.30;;;;;;;;;;5062811;28;20055;-85
2022/10/25 13:29:47;;;;;;;0.00;0.00;;;;;;;;;;5090609;28;20020;-87
2022/10/25 13:32:20;;;;;;;0.00;0.00;;;;;;;;;;5087562;28;20028;-86
2022/10/25 13:34:46;;;;;;;2.20;2.10;;;;;;;;;;5085073;28;20046;-87
2022/10/25 13:37:33;;;;;;;0.00;0.00;;;;;;;;;;5092662;28;20123;-88
2022/10/25 13:40:04;;;;;;;0.00;0.00;;;;;;;;;;5085747;28;20076;-88
2022/10/25 13:42:37;;;;;;;0.00;0.00;;;;;;;;;;5093938;28;20031;-88
2022/10/25 13:45:03;;;;;;;0.00;0.00;;;;;;;;;;5089349;28;20036;-87
2022/10/25 13:47:36;;;;;;;0.00;0.00;;;;;;;;;;5091751;28;20039;-86
2022/10/25 13:50:17;;;;;;;0.00;0.00;;;;;;;;;;5094208;28;20095;-87
2022/10/25 13:52:45;;;;;;;0.00;0.00;;;;;;;;;;5092141;28;20230;-89
2022/10/25 13:55:15;;;;;;;0.10;0.10;;;;;;;;;;5093821;28;20067;-88
2022/10/25 13:57:50;;;;;;;0.00;0.00;;;;;;;;;;5093701;28;20036;-87
2022/10/25 14:00:16;;;;;;;0.30;0.30;;;;;;;;;;5090790;28;20024;-88
2022/10/25 14:03:01;;;;;;;0.00;0.00;;;;;;;;;;5105925;28;20036;-87
2022/10/25 14:05:46;;;;;;;0.43;0.40;;;;;;;;;;5087734;28;20379;-86
2022/10/25 14:08:31;;;;;;;0.00;0.00;;;;;;;;;;5099570;28;20035;-83
2022/10/25 14:11:11;;;;;;;0.00;0.00;;;;;;;;;;5102410;28;20023;-84
2022/10/25 14:13:50;;;;;;;0.17;0.17;;;;;;;;;;5079431;28;20039;-87
2022/10/25 14:16:27;;;;;;;0.00;0.00;;;;;;;;;;5084969;28;20455;-86
2022/10/25 14:18:54;;;;;;;0.00;0.00;;;;;;;;;;5100051;28;20056;-86
2022/10/25 14:21:23;;;;;;;0.00;0.00;;;;;;;;;;5083548;28;20114;-88
2022/10/25 14:23:50;;;;;;;1.60;1.55;;;;;;;;;;5087588;28;20020;-88
2022/10/25 14:26:17;;;;;;;1.52;1.42;;;;;;;;;;5088497;28;20527;-87
2022/10/25 14:28:43;;;;;;;0.00;0.00;;;;;;;;;;5092125;28;20032;-91
2022/10/25 14:31:16;;;;;;;0.00;0.00;;;;;;;;;;5089875;28;20104;-87
2022/10/25 14:33:44;;;;;;;0.10;0.10;;;;;;;;;;5093253;28;20024;-88
2022/10/25 14:36:24;;;;;;;0.00;0.00;;;;;;;;;;5094463;28;20024;-85
2022/10/25 14:39:02;;;;;;;0.10;0.10;;;;;;;;;;5106041;28;20055;-86
2022/10/25 14:41:30;;;;;;;2.17;2.08;;;;;;;;;;5091152;28;20353;-87
2022/10/25 14:43:57;;;;;;;0.30;0.30;;;;;;;;;;5094847;28;20361;-88
2022/10/25 14:46:24;;;;;;;0.00;0.00;;;;;;;;;;5091664;28;20035;-88
2022/10/25 14:48:54;;;;;;;0.00;0.00;;;;;;;;;;5084090;28;20114;-87
2022/10/25 14:51:24;;;;;;;0.20;0.20;;;;;;;;;;5088559;28;20067;-89
2022/10/25 14:53:50;;;;;;;0.03;0.03;;;;;;;;;;5105339;28;20031;-83
2022/10/25 14:56:21;;;;;;;0.00;0.00;;;;;;;;;;5089921;28;20036;-88
2022/10/25 14:58:47;;;;;;;3.20;3.10;;;;;;;;;;5086440;28;20033;-87
2022/10/25 15:01:18;;;;;;;0.00;0.00;;;;;;;;;;5089808;28;20472;-89
2022/10/25 15:03:45;;;;;;;0.00;0.00;;;;;;;;;;5101325;28;20031;-86
2022/10/25 15:06:13;;;;;;;0.88;0.82;;;;;;;;;;5093608;28;20465;-87
2022/10/25 15:08:40;;;;;;;0.32;0.32;;;;;;;;;;5090010;28;20483;-88
2022/10/25 15:11:07;;;;;;;0.00;0.00;;;;;;;;;;5082401;28;20063;-88
2022/10/25 15:13:34;;;;;;;9.48;6.93;;;;;;;;;;5094789;28;20031;-86
2022/10/25 15:16:03;;;;;;;3.85;1.35;;;;;;;;;;5094756;28;20024;-88
2022/10/25 15:18:32;;;;;;;0.00;0.00;;;;;;;;;;5097076;28;20109;-84
2022/10/25 15:21:05;;;;;;;4.70;4.57;;;;;;;;;;5094466;28;20032;-81
2022/10/25 15:23:32;;;;;;;0.38;0.28;;;;;;;;;;5091162;28;20069;-89
2022/10/25 15:26:18;;;;;;;0.00;0.00;;;;;;;;;;5088192;28;20020;-88
2022/10/25 15:28:48;;;;;;;0.00;0.00;;;;;;;;;;5094501;28;20020;-87
2022/10/25 15:31:18;;;;;;;0.00;0.00;;;;;;;;;;5095740;28;20048;-87
2022/10/25 15:33:44;;;;;;;0.10;0.10;;;;;;;;;;5096923;28;20137;-88
2022/10/25 15:36:24;;;;;;;0.00;0.00;;;;;;;;;;5095862;28;20120;-89
2022/10/25 15:38:53;;;;;;;3.25;2.92;;;;;;;;;;5095476;28;20062;-86
2022/10/25 15:41:20;;;;;;;2.20;1.73;;;;;;;;;;5095821;28;20027;-85
2022/10/25 15:43:46;;;;;;;0.00;0.00;;;;;;;;;;5101183;28;20414;-87
2022/10/25 15:46:32;;;;;;;0.00;0.00;;;;;;;;;;5104289;28;20051;-89
2022/10/25 15:48:59;;;;;;;0.00;0.00;;;;;;;;;;5096464;28;20059;-90
2022/10/25 15:51:26;;;;;;;0.00;0.00;;;;;;;;;;5097034;28;20048;-87
2022/10/25 15:53:52;;;;;;;0.00;0.00;;;;;;;;;;5095493;28;20036;-87
2022/10/25 15:56:19;;;;;;;0.73;0.73;;;;;;;;;;5095467;28;20398;-89
2022/10/25 15:58:46;;;;;;;1.17;1.17;;;;;;;;;;5095504;28;20016;-85
2022/10/25 16:01:12;;;;;;;0.00;0.00;;;;;;;;;;5096621;28;20035;-90
2022/10/25 16:03:39;;;;;;;0.00;0.00;;;;;;;;;;5095529;28;20028;-88
2022/10/25 16:06:05;;;;;;;2.42;2.20;;;;;;;;;;5096158;28;20036;-89
2022/10/25 16:08:31;;;;;;;13.98;4.43;;;;;;;;;;5094837;28;20111;-88
2022/10/25 16:10:58;;;;;;;0.00;0.00;;;;;;;;;;5096261;28;20104;-89
2022/10/25 16:13:31;;;;;;;0.40;0.40;;;;;;;;;;5095575;28;20024;-88
2022/10/25 16:15:58;;;;;;;0.10;0.10;;;;;;;;;;5093388;28;20032;-85
2022/10/25 16:18:24;;;;;;;3.42;1.10;;;;;;;;;;5094881;28;20024;-88
2022/10/25 16:20:51;;;;;;;0.85;0.85;;;;;;;;;;5095595;28;20016;-91
2022/10/25 16:23:21;;;;;;;0.15;0.15;;;;;;;;;;5095860;28;20047;-88
2022/10/25 16:25:47;;;;;;;0.10;0.10;;;;;;;;;;5095318;28;20050;-86